Startpagina
METAR-TAF:

METAR-TAF

Vliegvelden :

Aeroporto Internacional de Rio Branco

Rio Branco, Acre, Brazilië

breedte: 10-00S, lengte: 067-48W, hoogte: 142 m

Actueel weer

Dit bericht is 55 minuten geleden gemaakt, om 13:00 UTC
Wind 3 kt uit het zuiden
Temperatuur 21°C
Vochtigheid 100%
Druk 1018 hPa
Zicht: 8000 m
Gebroken wolken op 400 ft

METAR: SBRB 051300Z 17003KT 8000 BKN004 21/21 Q1018

Tijdstip: 08:55 (13:55 UTC)

Verwachting

Dit bericht is 4 uur en het 55 minuten geleden gemaakt, om 09:00 UTC
Verwachting geldig van 05 om 12 UTC tot 05 om 24 UTC
Wind 5 kt uit het noordnoordoosten
Zicht 10 km of meer
Gebroken wolken op 1000 ft
Wijzigt naar
van 05 om 15 UTC tot 05 om 17 UTC
Wind 5 kt uit het oostzuidoosten
Verspreide wolken op 2000 ft

TAF: SBRB 050900Z 0512/0524 03005KT 9999 BKN010 TN21/0512Z TX29/0518Z BECMG 0515/0517 12005KT SCT020 RMK PDX

Waarnemingen en weersverwachtingen van meer dan 4000 vliegvelden (METAR en TAF).

De beschikbare stations zijn de gele en rode punten op de kaart.

Ga met uw muis naar het station om de naam te zien.

Klik dan om waarnemingen en weersverwachtingen te zien.

kaart wijzigen: klik op de groene knoppen met een zwart kruis om in te zoomen, op de groene knop met een streepje om uit te zoomen of op de groene pijlen voor aangrenzende kaarten.


METAR-TAF: